Time;durP1;ratioP1;P1;durP2;ratioP2;P2;SDS_P1;SDS_P2;PMS_P1;PMS_P2;Temp;Humidity;BMP_temperature;BMP_pressure;BME280_temperature;BME280_humidity;BME280_pressure;Samples;Min_cycle;Max_cycle;Signal;HPM_P1;HPM_P2
2022/05/22 00:01:23;;;;;;;9.05;1.73;;;;;;;11.89;82.22;101391.09;5071330;28;20372;-85
2022/05/22 00:03:48;;;;;;;4.28;1.60;;;;;;;11.87;81.88;101398.06;5071181;28;20074;-85
2022/05/22 00:06:14;;;;;;;6.13;2.00;;;;;;;11.86;82.47;101401.56;5070822;28;20035;-85
2022/05/22 00:08:39;;;;;;;4.78;1.60;;;;;;;11.84;82.93;101405.97;5070833;28;20046;-85
2022/05/22 00:11:04;;;;;;;4.60;1.45;;;;;;;11.83;81.40;101401.59;5070991;28;20027;-85
2022/05/22 00:13:30;;;;;;;4.32;1.70;;;;;;;11.82;82.62;101399.84;5070726;28;20024;-85
2022/05/22 00:18:39;;;;;;;7.78;2.25;;;;;;;11.80;81.82;101391.16;5071052;28;20039;-85
2022/05/22 00:21:05;;;;;;;5.05;1.90;;;;;;;11.79;82.76;101399.91;5070655;28;20029;-85
2022/05/22 00:23:33;;;;;;;5.32;1.65;;;;;;;11.79;83.46;101389.44;5070637;28;20026;-85
2022/05/22 00:25:58;;;;;;;6.32;1.80;;;;;;;11.77;83.41;101386.81;5070964;28;20029;-85
2022/05/22 00:28:24;;;;;;;9.45;2.85;;;;;;;11.76;82.70;101384.22;5070786;28;20504;-85
2022/05/22 00:30:50;;;;;;;8.02;3.13;;;;;;;11.74;81.93;101380.75;5070734;28;20119;-85
2022/05/22 00:33:15;;;;;;;5.40;3.45;;;;;;;11.72;82.11;101382.53;5070647;28;20515;-85
2022/05/22 00:35:41;;;;;;;7.80;2.10;;;;;;;11.74;82.58;101378.13;5070378;28;20029;-85
2022/05/22 00:38:06;;;;;;;7.00;1.90;;;;;;;11.75;82.82;101382.50;5070492;28;20025;-85
2022/05/22 00:40:32;;;;;;;4.65;1.70;;;;;;;11.74;83.19;101378.13;5070493;28;20024;-85
2022/05/22 00:42:58;;;;;;;4.82;1.85;;;;;;;11.73;82.36;101381.66;5070483;28;20028;-85
2022/05/22 00:45:23;;;;;;;6.38;1.67;;;;;;;11.70;82.67;101382.53;5070437;28;20027;-86
2022/05/22 00:47:51;;;;;;;5.07;1.38;;;;;;;11.67;83.47;101379.97;5070439;28;20032;-85
2022/05/22 00:50:17;;;;;;;7.32;1.85;;;;;;;11.64;83.53;101373.00;5070746;28;20035;-85
2022/05/22 00:52:46;;;;;;;3.97;1.48;;;;;;;11.61;83.29;101375.63;5069961;28;20025;-85
2022/05/22 00:55:15;;;;;;;6.05;1.73;;;;;;;11.62;83.65;101384.38;5070548;28;20505;-86
2022/05/22 00:57:45;;;;;;;5.70;1.40;;;;;;;11.62;83.97;101377.38;5070213;28;20020;-85
2022/05/22 01:00:16;;;;;;;9.02;2.58;;;;;;;11.61;83.61;101374.78;5070514;28;20028;-85
2022/05/22 01:05:27;;;;;;;4.18;1.77;;;;;;;11.58;82.32;101375.69;5088500;28;20032;-85
2022/05/22 01:07:55;;;;;;;7.07;2.17;;;;;;;11.55;82.35;101370.47;5074616;28;20413;-85
2022/05/22 01:10:20;;;;;;;4.38;2.00;;;;;;;11.53;82.99;101366.13;5073987;28;20035;-85
2022/05/22 01:12:46;;;;;;;3.67;1.65;;;;;;;11.49;82.72;101374.03;5073899;28;20390;-85
2022/05/22 01:15:13;;;;;;;5.20;1.85;;;;;;;11.47;83.43;101372.31;5073872;28;20107;-85
2022/05/22 01:17:41;;;;;;;10.77;2.05;;;;;;;11.45;82.67;101384.50;5073874;28;20020;-85
2022/05/22 01:20:07;;;;;;;5.32;1.55;;;;;;;11.43;83.73;101381.06;5073861;28;20052;-85
2022/05/22 01:22:32;;;;;;;6.15;1.73;;;;;;;11.41;84.01;101378.47;5090998;28;20115;-85
2022/05/22 01:24:58;;;;;;;4.57;1.85;;;;;;;11.38;84.41;101378.47;5073791;28;20162;-85
2022/05/22 01:27:24;;;;;;;7.15;1.77;;;;;;;11.37;83.99;101381.97;5073548;28;20070;-85
2022/05/22 01:29:49;;;;;;;6.03;1.88;;;;;;;11.37;83.09;101376.75;5073566;28;20574;-85
2022/05/22 01:32:15;;;;;;;4.43;1.95;;;;;;;11.34;82.99;101371.53;5073836;28;20035;-85
2022/05/22 01:34:40;;;;;;;7.20;2.20;;;;;;;11.36;82.12;101371.50;5073498;28;20057;-85
2022/05/22 01:37:06;;;;;;;5.07;1.77;;;;;;;11.26;82.34;101363.75;5073530;28;20086;-86
2022/05/22 01:39:31;;;;;;;6.78;2.10;;;;;;;11.22;83.28;101359.44;5073356;28;20020;-86
2022/05/22 01:41:56;;;;;;;7.18;2.33;;;;;;;11.22;82.80;101356.81;5090660;28;20088;-85
2022/05/22 01:44:23;;;;;;;6.35;2.03;;;;;;;11.22;83.99;101356.81;5073264;28;20032;-85
2022/05/22 01:46:48;;;;;;;7.03;2.22;;;;;;;11.20;83.64;101353.34;5073505;28;20119;-85
2022/05/22 01:49:13;;;;;;;5.72;2.33;;;;;;;11.19;83.84;101346.38;5073226;28;20112;-86
2022/05/22 01:51:40;;;;;;;3.13;2.20;;;;;;;11.18;83.99;101349.88;5073361;28;20504;-85
2022/05/22 01:54:06;;;;;;;7.75;2.60;;;;;;;11.18;84.42;101344.66;5072856;28;20024;-85
2022/05/22 01:56:34;;;;;;;4.80;2.30;;;;;;;11.16;85.38;101347.25;5073036;28;20535;-85
2022/05/22 01:58:59;;;;;;;4.60;2.95;;;;;;;11.17;85.22;101348.16;5073059;28;20032;-85
2022/05/22 02:01:25;;;;;;;9.63;2.38;;;;;;;11.16;84.20;101347.25;5073133;28;20485;-85
2022/05/22 02:03:50;;;;;;;3.63;2.20;;;;;;;11.16;84.91;101346.41;5073113;28;20506;-86
2022/05/22 02:06:15;;;;;;;9.38;2.13;;;;;;;11.14;85.73;101350.78;5073138;28;20013;-85
2022/05/22 02:08:42;;;;;;;4.03;2.20;;;;;;;11.13;85.18;101362.13;5073089;28;20115;-85
2022/05/22 02:11:08;;;;;;;3.47;1.73;;;;;;;11.12;85.78;101360.38;5073159;28;20494;-86
2022/05/22 02:13:39;;;;;;;4.82;2.03;;;;;;;11.10;86.03;101351.69;5091428;22;20043;-84
2022/05/22 02:16:05;;;;;;;3.85;2.03;;;;;;;11.09;86.12;101345.59;5112241;28;20035;-84
2022/05/22 02:18:30;;;;;;;3.70;2.28;;;;;;;11.07;85.80;101352.59;5097133;28;20016;-85
2022/05/22 02:20:56;;;;;;;6.30;2.10;;;;;;;11.06;85.53;101350.00;5114240;28;20468;-85
2022/05/22 02:23:21;;;;;;;5.53;2.20;;;;;;;11.06;85.61;101352.59;5097051;28;20058;-84
2022/05/22 02:25:52;;;;;;;4.55;1.90;;;;;;;11.06;86.19;101350.00;5097364;28;20532;-85
2022/05/22 02:28:19;;;;;;;4.85;2.30;;;;;;;11.04;86.09;101349.13;5115499;28;20087;-85
2022/05/22 02:30:48;;;;;;;5.10;2.75;;;;;;;11.04;85.96;101351.72;5114166;28;20031;-84
2022/05/22 02:33:13;;;;;;;5.80;2.38;;;;;;;11.01;85.49;101351.75;5114101;28;20121;-85
2022/05/22 02:35:39;;;;;;;6.10;2.10;;;;;;;11.00;86.37;101358.72;5096589;28;20103;-84
2022/05/22 02:38:05;;;;;;;7.35;2.38;;;;;;;10.97;85.67;101357.00;5096827;28;20412;-85
2022/05/22 02:40:31;;;;;;;4.47;2.03;;;;;;;10.96;85.77;101360.50;5114306;28;20081;-85
2022/05/22 02:42:57;;;;;;;5.63;2.45;;;;;;;10.96;86.27;101364.84;5113982;28;20027;-84
2022/05/22 02:45:25;;;;;;;5.35;2.40;;;;;;;10.97;86.27;101358.75;5113572;28;20531;-86
2022/05/22 02:47:51;;;;;;;5.57;2.30;;;;;;;10.94;86.76;101354.41;5112454;28;20027;-84
2022/05/22 02:50:19;;;;;;;6.13;2.13;;;;;;;10.93;86.64;101355.28;5113488;28;20073;-85
2022/05/22 02:52:45;;;;;;;8.77;2.60;;;;;;;10.88;85.21;101354.47;5113270;28;20020;-85
2022/05/22 02:55:10;;;;;;;6.15;2.25;;;;;;;10.91;84.34;101350.97;5096110;28;20026;-84
2022/05/22 02:57:37;;;;;;;4.80;2.03;;;;;;;10.90;85.58;101344.00;5096231;28;20015;-85
2022/05/22 03:00:08;;;;;;;7.43;2.80;;;;;;;10.89;85.43;101356.19;5113237;28;20217;-84
2022/05/22 03:02:33;;;;;;;4.13;2.30;;;;;;;10.87;85.05;101347.50;5112945;28;20043;-85
2022/05/22 03:05:00;;;;;;;4.80;2.72;;;;;;;10.88;85.61;101346.63;5096481;28;20016;-85
2022/05/22 03:07:25;;;;;;;6.88;2.30;;;;;;;10.87;84.38;101347.50;5096958;28;20031;-85
2022/05/22 03:09:50;;;;;;;3.75;2.40;;;;;;;10.87;84.84;101346.63;5096298;28;20023;-84
2022/05/22 03:12:18;;;;;;;3.45;2.30;;;;;;;10.87;86.03;101352.72;5113289;28;20023;-85
2022/05/22 03:14:46;;;;;;;5.47;2.40;;;;;;;10.85;86.08;101359.69;5096525;28;20515;-85
2022/05/22 03:17:11;;;;;;;4.95;2.20;;;;;;;10.84;85.67;101365.81;5095924;28;20051;-85
2022/05/22 03:19:37;;;;;;;5.03;2.65;;;;;;;10.84;85.69;101365.81;5095680;28;20047;-84
2022/05/22 03:22:04;;;;;;;8.50;2.72;;;;;;;10.87;84.68;101365.78;5095840;28;20033;-84
2022/05/22 03:24:29;;;;;;;8.48;2.65;;;;;;;10.83;85.51;101366.69;5096101;28;20027;-84
2022/05/22 03:26:54;;;;;;;6.63;2.72;;;;;;;10.83;85.57;101366.69;5111827;28;20023;-85
2022/05/22 03:29:20;;;;;;;4.82;2.58;;;;;;;10.83;85.21;101364.06;5113062;28;20118;-85
2022/05/22 03:31:45;;;;;;;8.35;2.90;;;;;;;10.80;85.53;101362.34;5095899;28;20044;-85
2022/05/22 03:34:11;;;;;;;5.57;2.30;;;;;;;10.77;85.11;101369.31;5095749;28;20045;-85
2022/05/22 03:36:39;;;;;;;5.65;2.22;;;;;;;10.77;85.17;101359.75;5112976;28;20019;-85
2022/05/22 03:39:05;;;;;;;4.05;2.60;;;;;;;10.79;85.67;101367.59;5112795;28;20020;-84
2022/05/22 03:41:31;;;;;;;3.25;2.60;;;;;;;10.77;85.72;101358.88;5095768;28;20039;-84
2022/05/22 03:43:56;;;;;;;6.68;2.80;;;;;;;10.78;84.99;101352.78;5095272;28;20031;-84
2022/05/22 03:46:21;;;;;;;7.97;2.75;;;;;;;10.78;85.73;101344.94;5095056;28;20049;-85
2022/05/22 03:48:47;;;;;;;6.00;2.45;;;;;;;10.77;85.80;101348.41;5095180;28;20072;-85
2022/05/22 03:51:12;;;;;;;5.95;2.50;;;;;;;10.78;86.05;101350.16;5094972;28;20385;-85
2022/05/22 03:53:37;;;;;;;7.22;2.40;;;;;;;10.78;86.52;101355.38;5111934;28;20223;-85
2022/05/22 03:56:14;;;;;;;5.18;2.53;;;;;;;10.80;85.75;101353.66;5094778;28;20027;-85
2022/05/22 03:58:40;;;;;;;8.88;2.60;;;;;;;10.85;85.70;101361.44;5112499;28;20388;-85
2022/05/22 04:01:07;;;;;;;6.43;2.53;;;;;;;10.87;86.42;101355.34;5112061;28;20480;-85
2022/05/22 04:03:34;;;;;;;4.50;2.47;;;;;;;10.89;86.50;101348.34;5095330;28;20473;-84
2022/05/22 04:06:03;;;;;;;5.28;2.15;;;;;;;10.90;86.84;101344.84;5111451;28;20023;-84
2022/05/22 04:08:29;;;;;;;7.30;2.25;;;;;;;10.88;86.35;101351.84;5111909;28;20456;-85
2022/05/22 04:10:54;;;;;;;10.10;3.15;;;;;;;10.87;87.09;101350.09;5094403;28;20115;-84
2022/05/22 04:13:20;;;;;;;5.57;2.50;;;;;;;10.89;85.57;101350.09;5094587;28;20114;-85
2022/05/22 04:15:46;;;;;;;6.15;2.50;;;;;;;10.90;86.45;101349.22;5094307;28;20499;-84
2022/05/22 04:18:14;;;;;;;4.97;2.47;;;;;;;10.92;85.66;101353.56;5094655;28;20023;-85
2022/05/22 04:20:40;;;;;;;7.70;2.83;;;;;;;10.89;86.27;101350.94;5111278;28;20023;-84
2022/05/22 04:25:57;;;;;;;7.07;3.03;;;;;;;10.92;86.11;101360.53;5111605;28;20107;-84
2022/05/22 04:28:24;;;;;;;5.55;2.70;;;;;;;10.95;86.55;101356.16;5111428;28;20023;-84
2022/05/22 04:30:51;;;;;;;7.70;2.45;;;;;;;10.94;86.63;101357.03;5111096;28;20037;-85
2022/05/22 04:33:16;;;;;;;5.80;2.60;;;;;;;10.96;86.14;101363.13;5111522;28;20043;-85
2022/05/22 04:35:43;;;;;;;4.45;2.67;;;;;;;10.98;87.15;101358.72;5112000;28;20028;-85
2022/05/22 04:38:09;;;;;;;8.20;2.85;;;;;;;10.98;87.03;101363.97;5096311;28;20150;-84
2022/05/22 04:40:35;;;;;;;6.13;2.35;;;;;;;11.01;86.34;101363.06;5116461;28;20033;-85
2022/05/22 04:43:01;;;;;;;5.30;3.00;;;;;;;11.02;85.82;101354.34;5117267;28;20023;-85
2022/05/22 04:45:27;;;;;;;6.00;2.50;;;;;;;11.06;87.10;101350.00;5134456;27;20020;-85
2022/05/22 04:47:52;;;;;;;5.70;2.85;;;;;;;11.10;85.92;101356.94;5117382;28;20073;-84
2022/05/22 04:50:18;;;;;;;5.57;2.78;;;;;;;11.11;86.21;101349.06;5100288;28;20062;-85
2022/05/22 04:52:43;;;;;;;8.13;2.83;;;;;;;11.16;86.24;101356.84;5117139;28;20027;-85
2022/05/22 04:55:09;;;;;;;7.82;2.88;;;;;;;11.22;86.01;101362.06;5099239;28;20054;-85
2022/05/22 04:57:35;;;;;;;8.48;3.58;;;;;;;11.25;84.75;101364.63;5099259;28;20054;-85
2022/05/22 05:00:01;;;;;;;5.25;3.10;;;;;;;11.24;84.67;101375.97;5115933;28;20069;-85
2022/05/22 05:02:26;;;;;;;5.13;2.67;;;;;;;11.29;84.95;101374.19;5116545;28;20442;-85
2022/05/22 05:04:53;;;;;;;8.75;3.30;;;;;;;11.30;84.79;101377.66;5099374;28;20034;-86
2022/05/22 05:07:18;;;;;;;5.10;2.75;;;;;;;11.33;84.58;101369.81;5116774;28;20556;-85
2022/05/22 05:09:45;;;;;;;4.95;2.95;;;;;;;11.37;84.68;101374.13;5099495;28;20114;-84
2022/05/22 05:12:10;;;;;;;6.20;2.80;;;;;;;11.42;84.29;101376.69;5100056;28;20054;-86
2022/05/22 05:14:37;;;;;;;8.90;3.08;;;;;;;11.46;84.28;101381.03;5099169;28;20024;-85
2022/05/22 05:17:09;;;;;;;5.80;2.67;;;;;;;11.47;83.75;101370.53;5100037;28;20070;-84
2022/05/22 05:19:35;;;;;;;6.43;2.40;;;;;;;11.49;84.12;101373.13;5117562;28;20038;-85
2022/05/22 05:22:00;;;;;;;8.32;3.55;;;;;;;11.53;84.13;101372.22;5117129;28;20498;-86
2022/05/22 05:24:25;;;;;;;6.13;2.40;;;;;;;11.52;83.42;101370.53;5116243;28;20039;-85
2022/05/22 05:26:54;;;;;;;6.97;2.80;;;;;;;11.54;84.25;101363.50;5099506;28;20388;-86
2022/05/22 05:29:19;;;;;;;6.38;2.65;;;;;;;11.55;84.68;101365.25;5098007;28;20477;-86
2022/05/22 05:31:44;;;;;;;5.30;2.30;;;;;;;11.58;84.86;101367.81;5114469;28;20054;-86
2022/05/22 05:34:10;;;;;;;3.35;2.53;;;;;;;11.59;84.18;101372.19;5114691;28;20019;-86
2022/05/22 05:36:36;;;;;;;8.80;2.67;;;;;;;11.61;84.78;101374.78;5114092;28;20027;-86
2022/05/22 05:39:02;;;;;;;9.15;2.60;;;;;;;11.61;84.17;101370.41;5114736;28;20016;-86
2022/05/22 05:41:27;;;;;;;9.10;3.00;;;;;;;11.59;83.24;101372.19;5097226;28;20031;-86
2022/05/22 05:43:52;;;;;;;6.50;2.90;;;;;;;11.62;83.28;101372.16;5097239;28;20042;-87
2022/05/22 05:46:18;;;;;;;5.65;1.98;;;;;;;11.65;84.38;101374.72;5096943;28;20019;-86
2022/05/22 05:48:43;;;;;;;7.07;2.70;;;;;;;11.69;83.59;101366.88;5097080;28;20088;-85
2022/05/22 05:51:12;;;;;;;10.75;3.13;;;;;;;11.70;83.94;101373.81;5096032;28;20024;-86
2022/05/22 05:53:37;;;;;;;4.53;2.63;;;;;;;11.72;83.51;101383.38;5097122;28;20024;-86
2022/05/22 05:56:04;;;;;;;4.47;2.50;;;;;;;11.75;83.99;101382.50;5096772;28;20161;-87
2022/05/22 05:58:29;;;;;;;9.13;2.50;;;;;;;11.80;83.44;101378.09;5114452;28;20499;-86
2022/05/22 06:00:55;;;;;;;4.22;2.47;;;;;;;11.87;81.82;101381.50;5096889;28;20027;-86
2022/05/22 06:03:20;;;;;;;5.85;2.65;;;;;;;11.89;83.37;101370.13;5096936;28;20024;-87
2022/05/22 06:05:45;;;;;;;5.80;3.00;;;;;;;11.91;83.67;101368.34;5113779;28;20027;-87
2022/05/22 06:08:11;;;;;;;8.07;3.28;;;;;;;11.93;83.06;101366.59;5096561;28;20472;-86
2022/05/22 06:10:38;;;;;;;7.35;2.40;;;;;;;11.94;82.24;101368.38;5113689;28;20073;-86
2022/05/22 06:13:03;;;;;;;7.85;3.28;;;;;;;11.94;82.75;101368.38;5113866;28;20042;-85
2022/05/22 06:15:31;;;;;;;7.70;2.88;;;;;;;11.95;81.97;101370.09;5113517;28;20031;-86
2022/05/22 06:17:58;;;;;;;6.25;2.83;;;;;;;11.97;81.87;101373.56;5113179;28;20024;-86
2022/05/22 06:20:24;;;;;;;12.13;3.47;;;;;;;11.99;82.20;101366.53;5113623;28;20024;-85
2022/05/22 06:22:49;;;;;;;6.43;3.10;;;;;;;12.00;82.12;101365.66;5130853;27;20019;-86
2022/05/22 06:25:17;;;;;;;5.28;2.38;;;;;;;12.06;82.32;101366.50;5113645;28;20027;-86
2022/05/22 06:27:43;;;;;;;8.40;2.58;;;;;;;12.10;81.96;101362.94;5113023;28;20024;-86
2022/05/22 06:30:12;;;;;;;6.20;2.85;;;;;;;12.14;81.76;101364.66;5096386;28;20481;-85
2022/05/22 06:32:39;;;;;;;4.60;2.38;;;;;;;12.22;80.95;101372.44;5113359;28;20023;-86
2022/05/22 06:35:05;;;;;;;4.25;2.40;;;;;;;12.25;81.49;101367.13;5113369;28;20024;-86
2022/05/22 06:37:31;;;;;;;4.25;2.38;;;;;;;12.30;81.25;101360.94;5113039;28;20393;-86
2022/05/22 06:39:56;;;;;;;8.77;2.60;;;;;;;12.36;80.96;101356.53;5113461;28;20020;-86
2022/05/22 06:42:34;;;;;;;10.57;2.75;;;;;;;12.36;80.52;101352.13;5112871;28;20107;-86
2022/05/22 06:45:03;;;;;;;7.03;2.50;;;;;;;12.36;79.91;101354.75;5113205;28;20098;-87
2022/05/22 06:47:30;;;;;;;5.00;1.77;;;;;;;12.36;78.86;101353.91;5112893;28;20016;-86
2022/05/22 06:49:57;;;;;;;6.32;2.22;;;;;;;12.34;80.09;101356.56;5113017;28;20040;-86
2022/05/22 06:52:22;;;;;;;8.57;2.38;;;;;;;12.33;79.28;101354.81;5113163;28;20055;-86
2022/05/22 06:54:48;;;;;;;10.68;2.47;;;;;;;12.31;78.83;101361.81;5096085;28;20051;-86
2022/05/22 06:57:16;;;;;;;6.00;2.25;;;;;;;12.31;80.09;101362.69;5095675;28;20047;-86
2022/05/22 06:59:43;;;;;;;3.83;2.20;;;;;;;12.31;79.10;101362.69;5112986;28;20024;-87
2022/05/22 07:02:08;;;;;;;9.63;2.60;;;;;;;12.33;79.82;101370.53;5130009;27;20023;-86
2022/05/22 07:04:33;;;;;;;5.35;2.10;;;;;;;12.36;80.24;101359.16;5095718;28;20050;-86
2022/05/22 07:06:59;;;;;;;5.05;2.20;;;;;;;12.37;78.98;101353.88;5112303;28;20053;-86
2022/05/22 07:09:24;;;;;;;6.50;1.88;;;;;;;12.40;79.00;101363.47;5096286;28;20035;-86
2022/05/22 07:11:53;;;;;;;6.30;2.40;;;;;;;12.37;79.64;101372.22;5129798;27;20385;-87
2022/05/22 07:14:19;;;;;;;6.10;2.60;;;;;;;12.43;79.65;101371.28;5096084;28;20658;-86
2022/05/22 07:16:44;;;;;;;5.95;2.28;;;;;;;12.52;79.34;101363.28;5096175;28;20019;-85
2022/05/22 07:19:11;;;;;;;4.90;2.50;;;;;;;12.59;80.20;101364.94;5113632;28;20133;-84
2022/05/22 07:21:36;;;;;;;5.57;2.38;;;;;;;12.64;78.30;101367.50;5112666;28;20034;-84
2022/05/22 07:24:02;;;;;;;9.60;2.38;;;;;;;12.66;77.93;101366.56;5114268;28;20388;-84
2022/05/22 07:26:28;;;;;;;4.07;1.85;;;;;;;12.71;76.90;101360.38;5096250;28;20023;-85
2022/05/22 07:28:54;;;;;;;8.48;1.92;;;;;;;12.70;77.15;101353.44;5113133;28;20023;-85
2022/05/22 07:31:24;;;;;;;6.20;2.03;;;;;;;12.73;77.86;101351.63;5113075;28;20032;-85
2022/05/22 07:33:50;;;;;;;5.40;1.80;;;;;;;12.73;77.88;101348.16;5112481;28;20023;-86
2022/05/22 07:36:16;;;;;;;6.65;2.33;;;;;;;12.77;76.24;101348.06;5095729;28;20020;-84
2022/05/22 07:38:42;;;;;;;5.03;1.80;;;;;;;12.80;76.41;101349.78;5113150;28;20019;-85
2022/05/22 07:41:07;;;;;;;3.97;1.35;;;;;;;12.83;75.80;101355.00;5130189;27;20384;-84
2022/05/22 07:43:33;;;;;;;4.43;1.75;;;;;;;12.86;75.02;101347.06;5095935;28;20030;-85
2022/05/22 07:45:58;;;;;;;4.10;1.60;;;;;;;12.94;75.92;101344.31;5095656;28;20034;-85
2022/05/22 07:48:24;;;;;;;6.68;1.65;;;;;;;12.93;75.43;101346.09;5112800;28;20027;-84
2022/05/22 07:50:58;;;;;;;4.03;1.23;;;;;;;12.91;74.86;101341.75;5130759;27;20051;-86
2022/05/22 07:53:24;;;;;;;5.40;1.23;;;;;;;12.90;75.65;101346.13;5112587;28;20027;-85
2022/05/22 07:55:51;;;;;;;6.38;1.50;;;;;;;12.84;75.10;101340.97;5112632;28;20024;-84
2022/05/22 07:58:18;;;;;;;5.28;1.67;;;;;;;12.82;76.56;101355.88;5113190;28;20122;-84
2022/05/22 08:00:44;;;;;;;5.90;1.55;;;;;;;12.72;74.88;101351.66;5113416;28;20110;-84
2022/05/22 08:03:11;;;;;;;4.88;1.60;;;;;;;12.71;74.93;101336.81;5096244;28;20058;-85
2022/05/22 08:05:36;;;;;;;5.38;1.80;;;;;;;12.79;76.27;101337.59;5113131;28;20110;-85
2022/05/22 08:08:02;;;;;;;2.97;1.30;;;;;;;12.87;76.14;101340.94;5096023;28;20046;-85
2022/05/22 08:10:27;;;;;;;3.72;1.38;;;;;;;12.94;74.08;101332.09;5096367;28;20020;-86
2022/05/22 08:12:52;;;;;;;1.83;1.15;;;;;;;13.01;73.24;101332.84;5095637;28;20031;-84
2022/05/22 08:15:21;;;;;;;1.63;0.75;;;;;;;13.08;72.65;101331.00;5112425;28;20027;-85
2022/05/22 08:17:47;;;;;;;3.72;1.10;;;;;;;13.08;72.96;101344.97;5111634;28;20031;-84
2022/05/22 08:20:15;;;;;;;4.53;1.23;;;;;;;13.04;72.40;101326.69;5111657;28;20421;-85
2022/05/22 08:22:44;;;;;;;2.50;1.02;;;;;;;12.98;71.92;101333.78;5094623;28;20024;-84
2022/05/22 08:25:10;;;;;;;2.55;1.00;;;;;;;12.91;72.50;101334.78;5111801;28;20023;-85
2022/05/22 08:27:35;;;;;;;3.90;1.00;;;;;;;12.89;73.96;101331.28;5111114;28;20034;-84
2022/05/22 08:30:01;;;;;;;3.30;0.95;;;;;;;12.92;72.70;101320.75;5111666;28;20023;-84
2022/05/22 08:32:27;;;;;;;2.95;1.15;;;;;;;12.95;73.78;101325.06;5093791;28;20047;-84
2022/05/22 08:34:54;;;;;;;3.25;0.93;;;;;;;12.98;70.62;101323.28;5111172;28;20110;-84
2022/05/22 08:37:19;;;;;;;1.27;0.63;;;;;;;13.05;69.11;101313.56;5111185;28;20020;-84
2022/05/22 08:39:45;;;;;;;2.22;0.90;;;;;;;13.10;70.48;101326.59;5094831;28;20034;-80
2022/05/22 08:42:15;;;;;;;2.45;0.82;;;;;;;13.21;70.66;101323.78;5095280;28;20035;-80
2022/05/22 08:44:41;;;;;;;1.77;1.00;;;;;;;13.32;71.26;101322.72;5112296;28;20081;-79
2022/05/22 08:47:18;;;;;;;2.05;0.80;;;;;;;13.42;71.09;101327.84;5127762;28;20384;-79
2022/05/22 08:49:54;;;;;;;4.65;0.85;;;;;;;13.45;67.95;101323.38;5112607;28;20031;-79
2022/05/22 08:52:28;;;;;;;1.60;0.90;;;;;;;13.47;69.07;101332.09;5083290;28;20069;-80
2022/05/22 08:55:00;;;;;;;3.20;1.15;;;;;;;13.42;69.21;101333.09;5105615;28;20114;-80
2022/05/22 09:00:23;;;;;;;1.92;1.10;;;;;;;13.45;69.69;101333.03;5111766;28;20050;-80
2022/05/22 09:03:32;;;;;;;1.40;1.00;;;;;;;13.50;70.88;101326.78;5090294;28;20023;-80
2022/05/22 09:05:59;;;;;;;2.15;1.02;;;;;;;13.63;71.40;101327.44;5110611;28;20385;-80
2022/05/22 09:08:45;;;;;;;2.22;0.93;;;;;;;13.67;67.25;101318.63;5088672;28;20106;-80
2022/05/22 09:11:28;;;;;;;2.72;0.68;;;;;;;13.64;68.26;101329.16;5074288;28;20024;-78
2022/05/22 09:14:19;;;;;;;2.08;0.80;;;;;;;13.55;68.72;101334.56;5088347;28;20032;-79
2022/05/22 09:16:53;;;;;;;2.75;1.77;;;;;;;13.49;68.62;101326.81;5108981;28;20122;-79
2022/05/22 09:19:23;;;;;;;4.65;0.90;;;;;;;13.49;68.60;101325.06;5111277;28;20081;-78
2022/05/22 09:22:13;;;;;;;3.42;0.68;;;;;;;13.58;69.31;101321.41;5089890;28;20043;-80
2022/05/22 09:24:50;;;;;;;1.92;0.70;;;;;;;13.68;68.69;101317.69;5079717;28;20026;-78
2022/05/22 09:27:31;;;;;;;2.28;0.73;;;;;;;13.72;69.63;101317.66;5113660;28;20560;-79
2022/05/22 09:30:01;;;;;;;1.23;0.98;;;;;;;13.76;69.90;101321.97;5114777;28;20075;-79
2022/05/22 09:32:42;;;;;;;3.45;0.93;;;;;;;13.72;68.45;101315.88;5097671;28;20487;-79
2022/05/22 09:35:16;;;;;;;1.42;0.60;;;;;;;13.72;68.51;101323.78;5114230;28;20031;-78
2022/05/22 09:37:57;;;;;;;0.95;0.50;;;;;;;13.62;67.54;101324.81;5115107;28;20028;-78
2022/05/22 09:41:04;;;;;;;2.08;0.75;;;;;;;13.58;66.82;101315.28;5108687;28;20019;-78
2022/05/22 09:43:54;;;;;;;2.40;0.70;;;;;;;13.62;67.01;101316.94;5050015;28;20053;-80
2022/05/22 09:46:53;;;;;;;3.78;1.70;;;;;;;13.64;68.58;101308.16;5050310;28;20490;-79
2022/05/22 09:49:19;;;;;;;2.50;0.80;;;;;;;13.68;67.67;101317.69;5094579;28;20116;-80
2022/05/22 09:51:59;;;;;;;3.03;0.60;;;;;;;13.76;67.47;101319.34;5114812;28;20085;-80
2022/05/22 09:54:30;;;;;;;1.63;0.60;;;;;;;13.87;67.07;101314.72;5095107;28;20035;-79
2022/05/22 09:57:47;;;;;;;1.90;0.50;;;;;;;13.92;66.06;101317.25;5094230;28;20028;-78
2022/05/22 10:00:18;;;;;;;1.80;0.73;;;;;;;14.09;66.08;101309.88;5061598;28;20039;-79
2022/05/22 10:02:50;;;;;;;1.08;0.47;;;;;;;14.26;63.11;101317.44;5077429;28;20058;-80
2022/05/22 10:05:21;;;;;;;1.35;0.60;;;;;;;14.31;63.97;101310.28;5094343;28;20027;-79
2022/05/22 10:07:46;;;;;;;3.13;0.60;;;;;;;14.32;62.03;101312.03;5106416;28;20055;-80
2022/05/22 10:10:30;;;;;;;1.25;0.45;;;;;;;14.28;62.92;101315.63;5106195;28;20484;-81
2022/05/22 10:13:08;;;;;;;1.40;0.85;;;;;;;14.20;63.41;101313.13;5092272;28;20032;-80
2022/05/22 10:15:43;;;;;;;1.48;0.90;;;;;;;14.08;65.42;101312.56;5114538;28;20119;-79
2022/05/22 10:18:39;;;;;;;2.55;0.73;;;;;;;14.03;65.46;101300.38;5114546;28;20028;-80
2022/05/22 10:21:13;;;;;;;;;;;;;;;14.11;64.78;101308.09;5111133;28;20031;-80
2022/05/22 10:24:06;;;;;;;1.73;0.60;;;;;;;14.16;66.29;101300.13;5114494;28;20334;-80
2022/05/22 10:26:37;;;;;;;0.85;0.60;;;;;;;14.18;66.82;101303.59;5109351;28;20039;-79
2022/05/22 10:29:22;;;;;;;1.83;0.47;;;;;;;14.21;65.94;101293.00;5098514;28;20024;-79
2022/05/22 10:31:59;;;;;;;2.33;0.90;;;;;;;14.28;65.53;101297.22;5099227;28;20396;-79
2022/05/22 10:34:40;;;;;;;0.82;0.28;;;;;;;14.31;63.60;101291.88;5114853;28;20080;-80
2022/05/22 10:37:32;;;;;;;1.83;0.50;;;;;;;14.39;63.01;101288.25;5096775;28;20023;-79
2022/05/22 10:39:59;;;;;;;0.50;0.40;;;;;;;14.48;62.88;101290.63;5114078;28;20037;-81
2022/05/22 10:42:49;;;;;;;1.08;0.60;;;;;;;14.63;62.36;101279.81;5113965;28;20431;-79
2022/05/22 10:45:33;;;;;;;1.80;0.50;;;;;;;14.80;61.48;101296.94;5094602;28;20054;-80
2022/05/22 10:48:12;;;;;;;1.10;0.50;;;;;;;14.95;58.62;101291.31;5076533;28;20441;-79
2022/05/22 10:50:53;;;;;;;1.23;0.30;;;;;;;15.10;58.43;101286.56;5076932;28;20035;-80
2022/05/22 10:53:30;;;;;;;2.22;0.60;;;;;;;15.19;60.94;101276.66;5077213;28;20477;-81
2022/05/22 10:56:18;;;;;;;0.82;0.45;;;;;;;15.19;60.00;101286.34;5095284;28;20020;-80
2022/05/22 10:59:28;;;;;;;4.88;0.63;;;;;;;15.10;60.16;101284.78;5097921;28;20093;-79
2022/05/22 11:02:03;;;;;;;1.17;0.30;;;;;;;15.15;59.68;101282.06;5080544;28;20537;-79
2022/05/22 11:04:42;;;;;;;1.08;0.43;;;;;;;15.30;61.05;101276.38;5097717;28;20057;-81
2022/05/22 11:07:08;;;;;;;3.20;0.52;;;;;;;15.40;60.95;101270.88;5095923;28;20016;-81
2022/05/22 11:09:45;;;;;;;1.35;0.60;;;;;;;15.40;58.88;101273.50;5113023;28;20030;-80
2022/05/22 11:12:22;;;;;;;2.03;0.30;;;;;;;15.35;60.30;101273.63;5096016;28;20053;-80
2022/05/22 11:14:47;;;;;;;1.90;0.45;;;;;;;15.28;61.63;101270.28;5112604;28;20019;-79
2022/05/22 11:17:21;;;;;;;1.17;0.40;;;;;;;15.25;61.40;101269.53;5095632;28;20024;-80
2022/05/22 11:19:53;;;;;;;1.23;0.57;;;;;;;15.18;62.08;101272.28;5131041;27;20031;-80
2022/05/22 11:22:58;;;;;;;1.80;0.60;;;;;;;15.19;63.19;101258.25;5113534;28;20438;-81
2022/05/22 11:25:42;;;;;;;1.65;0.90;;;;;;;15.28;60.87;101257.13;5096337;28;20093;-81
2022/05/22 11:28:29;;;;;;;2.97;1.07;;;;;;;15.42;57.96;101248.00;5112960;28;20035;-81
2022/05/22 11:31:21;;;;;;;2.00;0.60;;;;;;;15.38;58.05;101253.34;5112951;28;20257;-80
2022/05/22 11:34:04;;;;;;;2.10;0.60;;;;;;;15.38;58.11;101250.72;5113114;28;20050;-79
2022/05/22 11:36:58;;;;;;;2.00;0.60;;;;;;;15.37;58.98;101241.09;5112650;28;20474;-80
2022/05/22 11:39:32;;;;;;;2.10;0.80;;;;;;;15.45;60.54;101247.94;5113198;28;20063;-79
2022/05/22 11:42:14;;;;;;;1.80;0.73;;;;;;;15.53;59.44;101245.94;5094237;28;20122;-80
2022/05/22 11:44:52;;;;;;;2.15;0.80;;;;;;;15.64;59.63;101233.31;5075551;28;20028;-79
2022/05/22 11:47:39;;;;;;;2.22;0.60;;;;;;;15.72;56.88;101231.34;5091526;28;20020;-78